Time;durP1;ratioP1;P1;durP2;ratioP2;P2;SDS_P1;SDS_P2;PMS_P1;PMS_P2;Temp;Humidity;BMP_temperature;BMP_pressure;BME280_temperature;BME280_humidity;BME280_pressure;Samples;Min_cycle;Max_cycle;Signal;HPM_P1;HPM_P2
2022/07/24 00:02:45;;;;;;;24.50;21.73;;;;;18.00;101447.00;;;;10463329;28;20313;-78
2022/07/24 00:07:47;;;;;;;29.52;23.10;;;;;17.90;101454.00;;;;10457010;28;20292;-78
2022/07/24 00:12:49;;;;;;;28.23;24.92;;;;;17.90;101461.00;;;;10488525;28;20212;-78
2022/07/24 00:17:51;;;;;;;30.80;25.60;;;;;17.80;101447.00;;;;10471343;28;20292;-79
2022/07/24 00:22:56;;;;;;;34.08;26.95;;;;;17.70;101445.00;;;;10471420;28;20200;-78
2022/07/24 00:27:58;;;;;;;32.10;26.40;;;;;17.60;101448.00;;;;10467987;28;20707;-78
2022/07/24 00:33:00;;;;;;;33.60;28.77;;;;;17.60;101447.00;;;;10482148;28;20227;-79
2022/07/24 00:38:03;;;;;;;34.83;26.42;;;;;17.50;101457.00;;;;10467466;28;20280;-78
2022/07/24 00:43:04;;;;;;;34.10;28.35;;;;;17.40;101460.00;;;;10429572;28;20239;-78
2022/07/24 00:48:06;;;;;;;37.97;29.03;;;;;17.40;101459.00;;;;10462253;28;20216;-79
2022/07/24 00:53:10;;;;;;;37.85;29.05;;;;;17.40;101456.00;;;;10483700;28;20224;-79
2022/07/24 00:58:12;;;;;;;37.67;29.35;;;;;17.20;101453.00;;;;10487066;28;20197;-78
2022/07/24 01:03:14;;;;;;;39.45;32.08;;;;;17.10;101449.00;;;;10465442;28;20267;-78
2022/07/24 01:08:16;;;;;;;42.45;32.88;;;;;17.10;101449.00;;;;10494930;28;20266;-78
2022/07/24 01:13:22;;;;;;;46.33;36.27;;;;;17.00;101448.00;;;;10477942;28;20279;-78
2022/07/24 01:18:26;;;;;;;50.27;37.63;;;;;17.00;101447.00;;;;10446951;28;20186;-79
2022/07/24 01:23:28;;;;;;;43.67;36.40;;;;;17.00;101452.00;;;;10461155;28;20711;-78
2022/07/24 01:28:30;;;;;;;46.00;36.10;;;;;17.00;101447.00;;;;10452472;28;20561;-78
2022/07/24 01:33:32;;;;;;;48.60;34.78;;;;;17.00;101451.00;;;;10469180;28;20197;-78
2022/07/24 01:38:34;;;;;;;47.45;34.97;;;;;16.90;101448.00;;;;10485950;28;20189;-78
2022/07/24 01:43:36;;;;;;;50.13;36.30;;;;;16.90;101440.00;;;;10443938;28;20205;-78
2022/07/24 01:48:40;;;;;;;44.67;36.30;;;;;16.90;101435.00;;;;10439517;28;20244;-78
2022/07/24 01:53:42;;;;;;;55.50;40.37;;;;;16.90;101442.00;;;;10452334;28;20263;-78
2022/07/24 01:58:44;;;;;;;55.77;41.43;;;;;16.90;101437.00;;;;10481283;28;20188;-78
2022/07/24 02:03:47;;;;;;;53.53;41.22;;;;;16.90;101434.00;;;;10467424;28;20252;-78
2022/07/24 02:08:49;;;;;;;45.63;38.33;;;;;16.90;101430.00;;;;10452123;28;20210;-79
2022/07/24 02:13:52;;;;;;;47.78;36.78;;;;;16.90;101433.00;;;;10461923;28;20255;-78
2022/07/24 02:18:54;;;;;;;50.90;36.45;;;;;16.80;101432.00;;;;10453510;28;20189;-78
2022/07/24 02:23:56;;;;;;;44.25;35.35;;;;;16.80;101435.00;;;;10483884;28;21015;-78
2022/07/24 02:28:58;;;;;;;41.07;33.63;;;;;16.80;101432.00;;;;10499013;28;20645;-79
2022/07/24 02:34:00;;;;;;;45.75;33.95;;;;;16.80;101427.00;;;;10479863;28;20640;-78
2022/07/24 02:39:03;;;;;;;35.63;30.08;;;;;16.70;101432.00;;;;10450613;28;20289;-78
2022/07/24 02:44:06;;;;;;;38.43;28.73;;;;;16.70;101427.00;;;;10492203;28;20689;-78
2022/07/24 02:49:08;;;;;;;35.63;25.80;;;;;16.60;101418.00;;;;10475238;28;20236;-78
2022/07/24 02:54:11;;;;;;;26.75;23.48;;;;;16.50;101419.00;;;;10485373;28;20190;-78
2022/07/24 02:59:14;;;;;;;29.40;23.07;;;;;16.50;101414.00;;;;10466655;28;20189;-78
2022/07/24 03:04:16;;;;;;;30.27;24.03;;;;;16.50;101426.00;;;;10466391;28;20723;-78
2022/07/24 03:09:19;;;;;;;33.50;22.90;;;;;16.40;101418.00;;;;10468887;28;20201;-78
2022/07/24 03:14:20;;;;;;;27.43;22.53;;;;;16.30;101414.00;;;;10466491;28;20239;-79
2022/07/24 03:19:22;;;;;;;28.57;23.87;;;;;16.20;101417.00;;;;10465783;28;20629;-78
2022/07/24 03:24:24;;;;;;;32.53;24.83;;;;;16.10;101407.00;;;;10441981;28;20233;-78
2022/07/24 03:29:26;;;;;;;32.87;26.83;;;;;16.00;101404.00;;;;10474889;28;20213;-78
2022/07/24 03:34:29;;;;;;;40.00;32.23;;;;;15.90;101401.00;;;;10448136;28;20208;-78
2022/07/24 03:39:31;;;;;;;39.70;31.73;;;;;15.90;101398.00;;;;10455296;28;20185;-79
2022/07/24 03:44:33;;;;;;;42.57;33.73;;;;;15.90;101392.00;;;;10486718;28;20189;-78
2022/07/24 03:49:35;;;;;;;40.97;32.80;;;;;15.90;101387.00;;;;10473109;28;20201;-78
2022/07/24 03:54:37;;;;;;;37.83;31.20;;;;;15.90;101393.00;;;;10474102;28;20193;-78
2022/07/24 03:59:39;;;;;;;37.63;30.73;;;;;15.90;101398.00;;;;10463970;28;20750;-79
2022/07/24 04:04:41;;;;;;;36.50;28.43;;;;;15.90;101403.00;;;;10480511;28;20705;-78
2022/07/24 04:09:43;;;;;;;36.97;28.23;;;;;16.00;101401.00;;;;10464793;28;20193;-78
2022/07/24 04:14:45;;;;;;;33.40;27.93;;;;;16.00;101398.00;;;;10505886;28;20181;-78
2022/07/24 04:19:47;;;;;;;31.77;27.07;;;;;16.10;101401.00;;;;10488988;28;20675;-78
2022/07/24 04:24:49;;;;;;;30.47;25.20;;;;;16.10;101395.00;;;;10480804;28;20189;-78
2022/07/24 04:29:51;;;;;;;32.17;26.17;;;;;16.20;101399.00;;;;10447866;28;20477;-78
2022/07/24 04:34:53;;;;;;;34.27;27.97;;;;;16.20;101393.00;;;;10456554;28;20198;-78
2022/07/24 04:39:55;;;;;;;48.87;35.33;;;;;16.30;101388.00;;;;10461215;28;20189;-78
2022/07/24 04:44:57;;;;;;;41.47;31.17;;;;;16.40;101388.00;;;;10462674;28;20250;-79
2022/07/24 04:50:01;;;;;;;41.57;28.93;;;;;16.50;101389.00;;;;10472704;28;20675;-78
2022/07/24 04:55:03;;;;;;;34.43;25.40;;;;;16.60;101391.00;;;;10469755;28;20194;-78
2022/07/24 05:00:07;;;;;;;34.30;27.05;;;;;16.80;101398.00;;;;10445208;28;20231;-78
2022/07/24 05:05:09;;;;;;;29.53;23.63;;;;;17.10;101386.00;;;;10490891;28;20276;-78
2022/07/24 05:10:11;;;;;;;23.57;19.27;;;;;17.80;101391.00;;;;10476288;28;20205;-78
2022/07/24 05:15:13;;;;;;;19.67;14.57;;;;;18.30;101404.00;;;;10519998;28;20221;-78
2022/07/24 05:20:15;;;;;;;17.25;13.88;;;;;18.50;101409.00;;;;10452120;28;20652;-79
2022/07/24 05:25:17;;;;;;;14.82;12.10;;;;;18.70;101402.00;;;;10477081;28;20209;-78
2022/07/24 05:30:19;;;;;;;15.27;12.25;;;;;19.00;101403.00;;;;10459163;28;20208;-78
2022/07/24 05:35:22;;;;;;;11.88;10.60;;;;;19.40;101404.00;;;;10461469;28;20201;-77
2022/07/24 05:40:29;;;;;;;12.30;9.52;;;;;19.70;101413.00;;;;10510304;28;20656;-78
2022/07/24 05:45:31;;;;;;;14.40;9.27;;;;;20.10;101402.00;;;;10451474;28;20525;-78
2022/07/24 05:50:33;;;;;;;9.15;7.75;;;;;20.60;101402.00;;;;10478999;28;20262;-78
2022/07/24 05:55:35;;;;;;;8.73;7.68;;;;;21.40;101405.00;;;;10443971;28;20213;-78
2022/07/24 06:00:38;;;;;;;7.90;6.75;;;;;22.00;101410.00;;;;10459628;28;20213;-78
2022/07/24 06:05:39;;;;;;;8.73;6.95;;;;;22.60;101414.00;;;;10459837;28;20202;-78
2022/07/24 06:10:42;;;;;;;7.45;6.53;;;;;23.20;101408.00;;;;10463143;28;20855;-78
2022/07/24 06:15:44;;;;;;;8.80;6.32;;;;;23.60;101401.00;;;;10472382;28;20186;-79
2022/07/24 06:20:46;;;;;;;11.23;5.57;;;;;23.90;101400.00;;;;10440245;28;20194;-78
2022/07/24 06:25:50;;;;;;;10.77;5.03;;;;;24.20;101398.00;;;;10464473;28;20671;-78
2022/07/24 06:30:52;;;;;;;6.72;4.65;;;;;24.50;101392.00;;;;10446087;28;20680;-78
2022/07/24 06:35:54;;;;;;;5.60;4.35;;;;;24.90;101401.00;;;;10504773;28;20215;-78
2022/07/24 06:40:58;;;;;;;4.93;4.45;;;;;25.30;101390.00;;;;10450298;28;20551;-78
2022/07/24 06:46:00;;;;;;;4.47;3.83;;;;;25.70;101390.00;;;;10480078;28;20193;-79
2022/07/24 06:51:02;;;;;;;5.00;3.63;;;;;26.10;101399.00;;;;10462473;28;20194;-79
2022/07/24 06:56:05;;;;;;;4.30;3.25;;;;;26.60;101400.00;;;;10489682;28;20713;-79
2022/07/24 07:01:07;;;;;;;6.68;3.30;;;;;26.80;101399.00;;;;10462795;28;20217;-78
2022/07/24 07:06:09;;;;;;;3.45;2.78;;;;;27.10;101390.00;;;;10485297;28;20356;-79
2022/07/24 07:11:10;;;;;;;3.33;3.00;;;;;27.40;101387.00;;;;10473773;28;20208;-77
2022/07/24 07:16:12;;;;;;;3.20;2.65;;;;;27.80;101391.00;;;;10485591;28;20218;-77
2022/07/24 07:21:14;;;;;;;3.80;2.70;;;;;28.10;101396.00;;;;10488752;28;20186;-79
2022/07/24 07:26:17;;;;;;;3.22;2.60;;;;;28.40;101398.00;;;;10465478;28;20203;-79
2022/07/24 07:31:19;;;;;;;3.30;2.60;;;;;28.90;101396.00;;;;10460038;28;20223;-79
2022/07/24 07:36:21;;;;;;;2.72;2.42;;;;;29.30;101388.00;;;;10460112;28;20194;-79
2022/07/24 07:41:24;;;;;;;4.10;2.70;;;;;29.30;101390.00;;;;10448325;28;20710;-79
2022/07/24 07:46:26;;;;;;;3.08;2.78;;;;;29.70;101386.00;;;;10455307;28;20682;-77
2022/07/24 07:51:28;;;;;;;4.22;2.60;;;;;30.00;101379.00;;;;10486806;28;20292;-77
2022/07/24 07:56:31;;;;;;;3.05;2.80;;;;;30.30;101383.00;;;;10464077;28;20197;-77
2022/07/24 08:01:33;;;;;;;2.72;2.53;;;;;30.60;101374.00;;;;10461015;28;20249;-79
2022/07/24 08:06:35;;;;;;;3.30;2.72;;;;;31.00;101376.00;;;;10463907;28;20251;-79
2022/07/24 08:11:37;;;;;;;3.17;2.35;;;;;31.40;101377.00;;;;10480017;28;20217;-79
2022/07/24 08:16:39;;;;;;;2.70;2.50;;;;;31.50;101371.00;;;;10455369;28;20189;-79
2022/07/24 08:21:41;;;;;;;4.57;3.42;;;;;32.10;101372.00;;;;10450543;28;20217;-79
2022/07/24 08:26:43;;;;;;;3.63;2.67;;;;;31.90;101355.00;;;;10429823;28;20259;-80
2022/07/24 08:31:45;;;;;;;3.00;2.70;;;;;31.90;101352.00;;;;10450674;28;20212;-80
2022/07/24 08:36:47;;;;;;;3.90;3.03;;;;;32.40;101349.00;;;;10468866;28;20192;-80
2022/07/24 08:41:51;;;;;;;7.28;2.85;;;;;32.30;101350.00;;;;10487795;28;20260;-80
2022/07/24 08:46:54;;;;;;;3.75;2.85;;;;;32.40;101346.00;;;;10465299;28;20208;-80
2022/07/24 08:51:59;;;;;;;2.90;2.70;;;;;33.10;101330.00;;;;10483450;28;20228;-79
2022/07/24 08:57:03;;;;;;;3.83;2.30;;;;;33.60;101334.00;;;;10444449;28;20185;-80
2022/07/24 09:02:05;;;;;;;3.92;2.63;;;;;33.50;101333.00;;;;10453865;28;20223;-78
2022/07/24 09:07:10;;;;;;;2.60;2.40;;;;;33.60;101327.00;;;;10477455;28;20271;-79
2022/07/24 09:12:17;;;;;;;2.63;1.92;;;;;34.10;101317.00;;;;10444914;28;20672;-79
2022/07/24 09:17:20;;;;;;;2.55;2.10;;;;;34.40;101313.00;;;;10461163;28;20177;-79
2022/07/24 09:22:35;;;;;;;3.22;1.80;;;;;34.70;101308.00;;;;10445083;28;20209;-80
2022/07/24 09:27:40;;;;;;;4.38;2.13;;;;;34.90;101297.00;;;;10444314;28;20228;-79
2022/07/24 09:32:42;;;;;;;2.38;1.50;;;;;35.30;101299.00;;;;10466364;28;20197;-79
2022/07/24 09:37:53;;;;;;;3.13;1.83;;;;;35.70;101290.00;;;;10469986;28;20188;-80
2022/07/24 09:43:24;;;;;;;2.10;1.90;;;;;35.60;101277.00;;;;10445606;28;20231;-80
2022/07/24 09:48:30;;;;;;;4.28;1.55;;;;;35.80;101276.00;;;;10482649;28;20557;-80
2022/07/24 09:53:34;;;;;;;3.67;1.55;;;;;36.10;101270.00;;;;10486080;28;20207;-80
2022/07/24 09:58:45;;;;;;;3.05;1.58;;;;;36.20;101272.00;;;;10456883;28;20234;-80
2022/07/24 10:03:49;;;;;;;1.85;1.40;;;;;36.40;101260.00;;;;10460261;28;20236;-80
2022/07/24 10:08:53;;;;;;;1.73;1.63;;;;;36.50;101268.00;;;;10435454;28;20224;-80
2022/07/24 10:13:57;;;;;;;1.95;1.42;;;;;37.00;101264.00;;;;10464153;28;20189;-79
2022/07/24 10:19:00;;;;;;;2.30;1.63;;;;;37.30;101256.00;;;;10451712;28;20182;-80
2022/07/24 10:24:39;;;;;;;1.88;1.77;;;;;37.10;101244.00;;;;10435187;28;20779;-80
2022/07/24 10:29:48;;;;;;;2.00;1.42;;;;;36.90;101247.00;;;;10431113;28;20229;-80
2022/07/24 10:34:58;;;;;;;1.58;1.48;;;;;36.60;101253.00;;;;10450730;28;20296;-80
2022/07/24 10:40:03;;;;;;;1.75;1.65;;;;;36.70;101244.00;;;;10483537;28;20276;-79
2022/07/24 10:45:19;;;;;;;2.55;1.52;;;;;37.20;101245.00;;;;10482088;28;20612;-80
2022/07/24 10:50:22;;;;;;;1.10;1.00;;;;;37.40;101228.00;;;;10514441;28;20208;-80
2022/07/24 10:55:33;;;;;;;1.65;1.40;;;;;37.60;101229.00;;;;10449877;28;20201;-80
2022/07/24 11:00:40;;;;;;;1.67;1.58;;;;;38.00;101214.00;;;;10473735;28;20213;-80
2022/07/24 11:05:42;;;;;;;2.17;1.42;;;;;38.00;101215.00;;;;10481233;28;20247;-80
2022/07/24 11:10:51;;;;;;;3.58;1.40;;;;;38.30;101214.00;;;;10449298;28;20251;-80
2022/07/24 11:16:17;;;;;;;1.50;1.40;;;;;38.60;101212.00;;;;10449245;28;20192;-80
2022/07/24 11:21:38;;;;;;;2.00;1.48;;;;;38.90;101210.00;;;;10457910;28;20194;-80
2022/07/24 11:26:46;;;;;;;1.52;1.42;;;;;38.60;101196.00;;;;10490201;28;20203;-80
2022/07/24 11:31:50;;;;;;;1.60;1.50;;;;;38.60;101196.00;;;;10465021;28;20410;-80
2022/07/24 11:36:54;;;;;;;2.35;1.33;;;;;39.00;101191.00;;;;10432146;28;20284;-80
2022/07/24 11:42:07;;;;;;;2.50;1.40;;;;;38.90;101185.00;;;;10448788;28;20234;-80
2022/07/24 11:47:16;;;;;;;2.25;1.52;;;;;38.70;101167.00;;;;10471277;28;20601;-80
2022/07/24 11:52:19;;;;;;;2.00;1.50;;;;;38.90;101169.00;;;;10463234;28;20700;-80
2022/07/24 11:57:32;;;;;;;1.70;1.60;;;;;38.90;101175.00;;;;10449990;28;20197;-80
2022/07/24 12:02:57;;;;;;;2.28;1.45;;;;;38.70;101164.00;;;;10489670;28;20213;-80
2022/07/24 12:08:01;;;;;;;2.80;1.95;;;;;38.40;101160.00;;;;10447288;28;20209;-80
2022/07/24 12:13:03;;;;;;;2.95;1.60;;;;;37.90;101143.00;;;;10436216;28;20197;-80
2022/07/24 12:18:07;;;;;;;2.50;2.22;;;;;38.10;101133.00;;;;10471764;28;20185;-80
2022/07/24 12:23:12;;;;;;;2.20;1.85;;;;;38.20;101136.00;;;;10505379;28;20184;-80
2022/07/24 12:28:17;;;;;;;7.72;2.15;;;;;38.60;101133.00;;;;10444802;28;20223;-80
2022/07/24 12:33:22;;;;;;;2.38;2.03;;;;;38.60;101130.00;;;;10504005;28;20238;-80
2022/07/24 12:38:33;;;;;;;3.50;2.38;;;;;38.70;101120.00;;;;10487952;28;20199;-80
2022/07/24 12:43:49;;;;;;;4.22;2.00;;;;;38.90;101110.00;;;;10438722;28;20197;-80
2022/07/24 12:49:10;;;;;;;2.40;2.20;;;;;39.30;101105.00;;;;10446047;28;20212;-79
2022/07/24 12:54:21;;;;;;;4.25;2.50;;;;;39.00;101102.00;;;;10473919;28;20196;-79
2022/07/24 12:59:38;;;;;;;3.35;2.10;;;;;38.20;101083.00;;;;10466385;28;20234;-80
2022/07/24 13:04:42;;;;;;;3.35;2.38;;;;;38.40;101083.00;;;;10461830;28;20200;-81
2022/07/24 13:09:44;;;;;;;2.22;2.03;;;;;38.10;101073.00;;;;10478706;28;20197;-80
2022/07/24 13:14:46;;;;;;;3.80;2.10;;;;;38.30;101066.00;;;;10429226;28;20190;-80
2022/07/24 13:19:50;;;;;;;4.30;2.38;;;;;38.20;101051.00;;;;10463983;28;20227;-80
2022/07/24 13:24:52;;;;;;;4.95;2.40;;;;;38.20;101046.00;;;;10463637;28;20193;-79
2022/07/24 13:29:54;;;;;;;3.78;1.75;;;;;38.30;101031.00;;;;10461270;28;20263;-80
2022/07/24 13:34:56;;;;;;;2.60;2.40;;;;;38.60;101026.00;;;;10460154;28;20228;-80
2022/07/24 13:39:58;;;;;;;2.75;2.15;;;;;39.00;101021.00;;;;10460235;28;20192;-80
2022/07/24 13:45:00;;;;;;;3.40;2.30;;;;;39.10;101013.00;;;;10471957;28;20197;-80
2022/07/24 13:50:03;;;;;;;3.03;2.17;;;;;40.00;101004.00;;;;10500930;28;20257;-79
2022/07/24 13:55:05;;;;;;;2.28;2.05;;;;;40.90;100985.00;;;;10492482;28;20192;-80
2022/07/24 14:00:08;;;;;;;2.15;2.05;;;;;41.60;100982.00;;;;10477983;28;20231;-79
2022/07/24 14:05:10;;;;;;;3.47;2.10;;;;;42.10;100981.00;;;;10464322;28;20548;-80
2022/07/24 14:10:12;;;;;;;2.28;2.08;;;;;42.90;100975.00;;;;10460942;28;20201;-80
2022/07/24 14:15:15;;;;;;;2.95;2.63;;;;;43.40;100974.00;;;;10435525;28;20247;-80
2022/07/24 14:20:18;;;;;;;3.25;2.53;;;;;44.00;100963.00;;;;10489672;28;20196;-80
2022/07/24 14:25:20;;;;;;;2.92;2.40;;;;;44.30;100951.00;;;;10461003;28;20567;-80
2022/07/24 14:30:23;;;;;;;4.30;2.45;;;;;44.50;100960.00;;;;10450859;28;20251;-81
2022/07/24 14:35:26;;;;;;;4.85;2.92;;;;;44.70;100947.00;;;;10448623;28;20204;-80
2022/07/24 14:40:29;;;;;;;2.83;2.63;;;;;45.40;100938.00;;;;10449993;28;20283;-80
2022/07/24 14:45:31;;;;;;;3.33;2.65;;;;;43.00;100934.00;;;;10475843;28;20212;-80
2022/07/24 14:50:33;;;;;;;3.33;2.58;;;;;44.80;100939.00;;;;10492151;28;20615;-80
2022/07/24 14:55:35;;;;;;;7.15;2.70;;;;;45.40;100927.00;;;;10466586;28;20220;-80
2022/07/24 15:00:37;;;;;;;2.70;2.50;;;;;46.00;100917.00;;;;10452737;28;20366;-79
2022/07/24 15:05:39;;;;;;;3.58;2.92;;;;;45.90;100909.00;;;;10449819;28;20259;-80
2022/07/24 15:10:41;;;;;;;4.53;2.67;;;;;46.40;100904.00;;;;10483500;28;20612;-81
2022/07/24 15:15:43;;;;;;;2.25;2.10;;;;;46.20;100894.00;;;;10507562;28;20187;-80
2022/07/24 15:20:46;;;;;;;4.10;2.70;;;;;44.80;100888.00;;;;10474323;28;20199;-80
2022/07/24 15:25:48;;;;;;;3.33;2.75;;;;;45.00;100901.00;;;;10485490;28;20213;-79
2022/07/24 15:30:50;;;;;;;3.17;2.88;;;;;45.50;100879.00;;;;10482438;28;20241;-80
2022/07/24 15:35:53;;;;;;;3.70;3.17;;;;;41.90;100869.00;;;;10449216;28;20189;-80
2022/07/24 15:40:56;;;;;;;3.60;2.92;;;;;41.30;100880.00;;;;10448734;28;20198;-80
2022/07/24 15:45:58;;;;;;;5.60;3.13;;;;;44.30;100852.00;;;;10458056;28;20220;-79
2022/07/24 15:51:00;;;;;;;3.53;3.22;;;;;44.10;100853.00;;;;10472992;28;20208;-79
2022/07/24 15:56:02;;;;;;;3.58;3.10;;;;;42.70;100853.00;;;;10463878;28;20224;-80
2022/07/24 16:01:05;;;;;;;4.20;3.80;;;;;39.10;100850.00;;;;10477175;28;20202;-80
2022/07/24 16:06:27;;;;;;;3.50;3.20;;;;;36.70;100843.00;;;;10446446;28;20674;-79
2022/07/24 16:11:29;;;;;;;4.60;3.58;;;;;35.70;100832.00;;;;10463832;28;20222;-80
2022/07/24 16:16:31;;;;;;;3.75;3.35;;;;;34.90;100822.00;;;;10436952;28;20193;-80
2022/07/24 16:21:34;;;;;;;4.00;3.60;;;;;34.00;100817.00;;;;10505683;28;20216;-80
2022/07/24 16:26:36;;;;;;;4.70;3.67;;;;;33.70;100814.00;;;;10505143;28;20275;-80
2022/07/24 16:31:38;;;;;;;4.97;3.55;;;;;33.40;100813.00;;;;10472796;28;20208;-79
2022/07/24 16:36:41;;;;;;;4.53;4.10;;;;;33.10;100798.00;;;;10488204;28;20256;-79
2022/07/24 16:41:44;;;;;;;6.10;3.95;;;;;32.60;100782.00;;;;10471896;28;20193;-79
2022/07/24 16:46:47;;;;;;;5.80;3.90;;;;;32.50;100781.00;;;;10503319;28;20189;-79
2022/07/24 16:51:50;;;;;;;6.05;3.80;;;;;32.30;100784.00;;;;10472336;28;20224;-79
2022/07/24 16:56:51;;;;;;;6.93;3.83;;;;;32.30;100773.00;;;;10445819;28;20721;-79
2022/07/24 17:01:54;;;;;;;4.00;3.67;;;;;32.10;100770.00;;;;10468443;28;20239;-79
2022/07/24 17:06:56;;;;;;;4.20;3.38;;;;;31.90;100764.00;;;;10476242;28;20189;-79
2022/07/24 17:11:58;;;;;;;5.82;3.70;;;;;31.80;100752.00;;;;10445034;28;20580;-79
2022/07/24 17:17:00;;;;;;;3.35;3.05;;;;;31.80;100757.00;;;;10457562;28;20193;-80
2022/07/24 17:22:18;;;;;;;3.40;3.10;;;;;31.60;100761.00;;;;10470038;28;20638;-79
2022/07/24 17:27:20;;;;;;;3.35;2.95;;;;;31.50;100762.00;;;;10465099;28;20303;-79
2022/07/24 17:32:23;;;;;;;4.75;3.35;;;;;31.40;100757.00;;;;10445845;28;20217;-80
2022/07/24 17:37:26;;;;;;;4.15;3.22;;;;;31.30;100751.00;;;;10445178;28;20663;-80
2022/07/24 17:42:28;;;;;;;4.35;3.28;;;;;31.40;100745.00;;;;10502733;28;20207;-80
2022/07/24 17:47:30;;;;;;;4.20;2.80;;;;;31.40;100742.00;;;;10469311;28;20237;-79
2022/07/24 17:52:32;;;;;;;4.22;2.67;;;;;31.20;100749.00;;;;10466070;28;20635;-80
2022/07/24 17:57:36;;;;;;;5.03;3.20;;;;;31.10;100745.00;;;;10460803;28;20199;-80
2022/07/24 18:02:39;;;;;;;5.93;3.03;;;;;31.00;100743.00;;;;10460891;28;20209;-80
2022/07/24 18:07:42;;;;;;;3.40;2.80;;;;;30.90;100742.00;;;;10447085;28;20198;-79
2022/07/24 18:12:44;;;;;;;3.92;2.70;;;;;30.80;100735.00;;;;10443925;28;20255;-80
2022/07/24 18:17:46;;;;;;;3.38;3.00;;;;;30.60;100740.00;;;;10444176;28;20281;-79
2022/07/24 18:22:49;;;;;;;5.00;3.00;;;;;30.50;100741.00;;;;10463849;28;20197;-79
2022/07/24 18:27:51;;;;;;;5.28;3.47;;;;;30.30;100733.00;;;;10501713;28;20281;-79
2022/07/24 18:32:53;;;;;;;4.07;2.95;;;;;30.20;100735.00;;;;10491609;28;20213;-79
2022/07/24 18:37:55;;;;;;;3.78;3.33;;;;;30.00;100731.00;;;;10466785;28;20247;-79
2022/07/24 18:42:57;;;;;;;4.65;3.70;;;;;29.90;100724.00;;;;10434649;28;20280;-79
2022/07/24 18:47:59;;;;;;;4.50;3.30;;;;;29.70;100722.00;;;;10467301;28;20284;-79
2022/07/24 18:53:01;;;;;;;3.20;2.95;;;;;29.60;100727.00;;;;10468799;28;20197;-79
2022/07/24 18:58:03;;;;;;;3.47;3.17;;;;;29.40;100724.00;;;;10478940;28;20188;-79
2022/07/24 19:03:05;;;;;;;3.78;3.28;;;;;29.20;100718.00;;;;10457763;28;20279;-79
2022/07/24 19:08:07;;;;;;;6.32;3.33;;;;;29.00;100712.00;;;;10450014;28;20190;-79
2022/07/24 19:13:09;;;;;;;6.65;3.67;;;;;28.80;100708.00;;;;10488999;28;20213;-79
2022/07/24 19:18:11;;;;;;;5.10;3.90;;;;;28.60;100719.00;;;;10449346;28;20197;-79
2022/07/24 19:23:13;;;;;;;4.40;4.00;;;;;28.40;100715.00;;;;10481993;28;20238;-79
2022/07/24 19:28:15;;;;;;;4.43;4.00;;;;;28.10;100708.00;;;;10473835;28;20613;-79
2022/07/24 19:33:17;;;;;;;4.53;3.70;;;;;27.90;100707.00;;;;10500665;28;20201;-79
2022/07/24 19:38:19;;;;;;;8.15;5.40;;;;;27.70;100699.00;;;;10461162;28;20197;-79
2022/07/24 19:43:21;;;;;;;11.02;7.07;;;;;27.50;100694.00;;;;10464381;28;20182;-79
2022/07/24 19:48:29;;;;;;;5.25;4.28;;;;;27.20;100703.00;;;;10481158;28;20192;-79
2022/07/24 19:53:31;;;;;;;6.28;4.15;;;;;27.00;100696.00;;;;10471799;28;20259;-79
2022/07/24 19:58:33;;;;;;;7.88;4.50;;;;;26.90;100695.00;;;;10489102;28;20211;-79
2022/07/24 20:03:35;;;;;;;6.88;4.25;;;;;26.70;100688.00;;;;10481731;28;20209;-79
2022/07/24 20:08:38;;;;;;;4.78;4.38;;;;;26.50;100690.00;;;;10487988;28;20575;-79
2022/07/24 20:13:44;;;;;;;6.30;4.40;;;;;26.30;100701.00;;;;10488446;28;20201;-79
2022/07/24 20:18:46;;;;;;;5.35;4.85;;;;;26.20;100691.00;;;;10458167;28;20197;-79
2022/07/24 20:23:48;;;;;;;5.28;4.78;;;;;26.20;100684.00;;;;10463076;28;20297;-78
2022/07/24 20:28:50;;;;;;;9.57;5.13;;;;;26.10;100691.00;;;;10445027;28;20201;-79
2022/07/24 20:33:52;;;;;;;10.35;4.85;;;;;26.10;100684.00;;;;10446268;28;20194;-78
2022/07/24 20:38:54;;;;;;;7.68;4.75;;;;;26.10;100681.00;;;;10445880;28;20194;-79
2022/07/24 20:43:56;;;;;;;9.48;4.72;;;;;26.00;100689.00;;;;10456974;28;20644;-79
2022/07/24 20:48:58;;;;;;;8.05;4.43;;;;;25.90;100687.00;;;;10501015;28;20220;-79
2022/07/24 20:54:01;;;;;;;6.88;4.97;;;;;25.80;100679.00;;;;10486476;28;20193;-79
2022/07/24 20:59:08;;;;;;;6.88;4.07;;;;;25.70;100671.00;;;;10487106;28;20181;-79
2022/07/24 21:04:11;;;;;;;9.82;4.63;;;;;25.60;100681.00;;;;10457403;28;20221;-79
2022/07/24 21:09:13;;;;;;;8.30;5.93;;;;;25.40;100670.00;;;;10470241;28;20215;-79
2022/07/24 21:14:15;;;;;;;5.70;5.20;;;;;25.30;100667.00;;;;10486459;28;20558;-79
2022/07/24 21:19:17;;;;;;;5.00;4.50;;;;;25.20;100661.00;;;;10486132;28;20288;-79
2022/07/24 21:24:19;;;;;;;5.85;4.70;;;;;25.10;100663.00;;;;10469661;28;20189;-79
2022/07/24 21:29:21;;;;;;;5.55;4.57;;;;;25.10;100655.00;;;;10469735;28;20846;-79
2022/07/24 21:34:23;;;;;;;5.60;4.50;;;;;25.10;100651.00;;;;10444009;28;20301;-79
2022/07/24 21:39:25;;;;;;;4.95;4.32;;;;;25.10;100654.00;;;;10444990;28;20268;-79
2022/07/24 21:44:27;;;;;;;5.57;4.43;;;;;25.00;100652.00;;;;10476926;28;20205;-79
2022/07/24 21:49:29;;;;;;;4.88;4.38;;;;;24.90;100652.00;;;;10442663;28;20243;-79
2022/07/24 21:54:32;;;;;;;4.55;4.05;;;;;24.80;100651.00;;;;10477339;28;20251;-79
2022/07/24 21:59:33;;;;;;;6.35;4.22;;;;;24.70;100641.00;;;;10483056;28;20220;-79
2022/07/24 22:04:36;;;;;;;5.95;4.30;;;;;24.60;100635.00;;;;10505301;28;20707;-79
2022/07/24 22:09:38;;;;;;;9.63;4.45;;;;;24.50;100628.00;;;;10477185;28;20216;-79
2022/07/24 22:14:40;;;;;;;7.60;4.30;;;;;24.50;100616.00;;;;10493322;28;20193;-79
2022/07/24 22:19:42;;;;;;;5.20;3.95;;;;;24.50;100614.00;;;;10466972;28;20182;-79
2022/07/24 22:24:44;;;;;;;8.77;3.72;;;;;24.40;100620.00;;;;10467891;28;20583;-79
2022/07/24 22:29:48;;;;;;;4.60;4.20;;;;;24.40;100615.00;;;;10467609;28;20677;-79
2022/07/24 22:34:50;;;;;;;4.38;3.85;;;;;24.30;100626.00;;;;10492840;28;20568;-79
2022/07/24 22:39:55;;;;;;;7.13;4.07;;;;;24.10;100624.00;;;;10462868;28;20190;-79
2022/07/24 22:44:57;;;;;;;7.93;5.05;;;;;24.00;100626.00;;;;10450559;28;20193;-78
2022/07/24 22:49:59;;;;;;;5.47;4.85;;;;;23.90;100622.00;;;;10481607;28;20296;-78
2022/07/24 22:55:02;;;;;;;7.45;4.13;;;;;23.80;100622.00;;;;10490504;28;20292;-78
2022/07/24 23:00:06;;;;;;;7.45;4.30;;;;;23.70;100623.00;;;;10472837;28;20208;-79
2022/07/24 23:05:14;;;;;;;6.35;4.22;;;;;23.60;100607.00;;;;10465656;28;20199;-78
2022/07/24 23:10:16;;;;;;;8.15;4.32;;;;;23.60;100610.00;;;;10465616;28;20209;-78
2022/07/24 23:15:18;;;;;;;6.63;4.28;;;;;23.50;100601.00;;;;10465336;28;20251;-78
2022/07/24 23:20:20;;;;;;;8.55;4.43;;;;;23.40;100595.00;;;;10440495;28;20190;-78
2022/07/24 23:25:22;;;;;;;6.60;4.35;;;;;23.30;100598.00;;;;10465415;28;20729;-78
2022/07/24 23:30:24;;;;;;;6.72;4.43;;;;;23.30;100598.00;;;;10448736;28;20252;-78
2022/07/24 23:35:26;;;;;;;6.50;4.80;;;;;23.20;100589.00;;;;10462794;28;20243;-78
2022/07/24 23:40:28;;;;;;;10.73;4.70;;;;;23.10;100571.00;;;;10448693;28;20182;-78
2022/07/24 23:45:30;;;;;;;8.38;5.18;;;;;23.10;100567.00;;;;10448141;28;20268;-78
2022/07/24 23:50:32;;;;;;;6.93;4.65;;;;;23.10;100557.00;;;;10484635;28;20698;-79
2022/07/24 23:55:34;;;;;;;4.90;4.40;;;;;23.10;100561.00;;;;10463800;28;20239;-78
